sensor_id;sensor_type;location;lat;lon;timestamp;temperature;humidity
43414;DHT22;29013;49.676;8.606;2023-04-29T09:04:14;14.5;99.9
43414;DHT22;29013;49.676;8.606;2023-04-29T09:09:36;14.8;99.9
43414;DHT22;29013;49.676;8.606;2023-04-29T09:15:02;15.2;99.9
43414;DHT22;29013;49.676;8.606;2023-04-29T09:20:29;15.3;99.9
43414;DHT22;29013;49.676;8.606;2023-04-29T09:25:58;15.5;99.9
43414;DHT22;29013;49.676;8.606;2023-04-29T09:31:25;15.5;99.9
43414;DHT22;29013;49.676;8.606;2023-04-29T09:36:44;15.5;99.9
43414;DHT22;29013;49.676;8.606;2023-04-29T09:42:02;15.3;99.9
43414;DHT22;29013;49.676;8.606;2023-04-29T09:47:32;15.2;99.9
43414;DHT22;29013;49.676;8.606;2023-04-29T09:52:54;15.2;99.9
43414;DHT22;29013;49.676;8.606;2023-04-29T09:58:33;15.3;99.9
43414;DHT22;29013;49.676;8.606;2023-04-29T10:03:56;15.6;99.9
43414;DHT22;29013;49.676;8.606;2023-04-29T10:09:21;15.7;99.9
43414;DHT22;29013;49.676;8.606;2023-04-29T10:14:46;15.6;99.9
43414;DHT22;29013;49.676;8.606;2023-04-29T10:20:08;15.7;99.9
43414;DHT22;29013;49.676;8.606;2023-04-29T10:25:31;16.0;99.9
43414;DHT22;29013;49.676;8.606;2023-04-29T10:30:56;16.0;99.9
43414;DHT22;29013;49.676;8.606;2023-04-29T10:36:17;16.0;99.9
43414;DHT22;29013;49.676;8.606;2023-04-29T10:41:43;16.1;99.9
43414;DHT22;29013;49.676;8.606;2023-04-29T10:47:19;16.2;99.9
43414;DHT22;29013;49.676;8.606;2023-04-29T10:53:02;16.4;99.9
43414;DHT22;29013;49.676;8.606;2023-04-29T10:58:37;16.9;99.9
43414;DHT22;29013;49.676;8.606;2023-04-29T11:04:00;16.7;99.9
43414;DHT22;29013;49.676;8.606;2023-04-29T11:09:28;16.7;99.9
43414;DHT22;29013;49.676;8.606;2023-04-29T11:14:49;16.5;99.9
43414;DHT22;29013;49.676;8.606;2023-04-29T11:20:13;16.5;99.9
43414;DHT22;29013;49.676;8.606;2023-04-29T11:25:38;16.6;99.9
43414;DHT22;29013;49.676;8.606;2023-04-29T11:30:59;16.6;99.9
43414;DHT22;29013;49.676;8.606;2023-04-29T11:36:18;16.6;99.9
43414;DHT22;29013;49.676;8.606;2023-04-29T11:41:41;16.6;99.9
43414;DHT22;29013;49.676;8.606;2023-04-29T11:47:06;16.6;99.9
43414;DHT22;29013;49.676;8.606;2023-04-29T11:53:10;16.4;99.9
43414;DHT22;29013;49.676;8.606;2023-04-29T11:58:31;16.9;99.9
43414;DHT22;29013;49.676;8.606;2023-04-29T12:03:55;16.7;99.9
43414;DHT22;29013;49.676;8.606;2023-04-29T12:09:18;16.6;99.9
43414;DHT22;29013;49.676;8.606;2023-04-29T12:14:41;16.7;99.9
43414;DHT22;29013;49.676;8.606;2023-04-29T12:20:08;16.8;99.9
43414;DHT22;29013;49.676;8.606;2023-04-29T12:25:31;16.5;99.9
43414;DHT22;29013;49.676;8.606;2023-04-29T12:30:53;16.5;99.9
43414;DHT22;29013;49.676;8.606;2023-04-29T12:36:19;16.3;99.9
43414;DHT22;29013;49.676;8.606;2023-04-29T12:41:44;16.2;99.9
43414;DHT22;29013;49.676;8.606;2023-04-29T12:47:11;16.3;99.9
43414;DHT22;29013;49.676;8.606;2023-04-29T12:52:32;16.7;99.9
43414;DHT22;29013;49.676;8.606;2023-04-29T12:57:56;16.9;99.7
43414;DHT22;29013;49.676;8.606;2023-04-29T13:03:20;17.3;99.0
43414;DHT22;29013;49.676;8.606;2023-04-29T13:08:45;17.3;98.6
43414;DHT22;29013;49.676;8.606;2023-04-29T13:14:09;17.1;99.0
43414;DHT22;29013;49.676;8.606;2023-04-29T13:19:32;16.8;99.4
43414;DHT22;29013;49.676;8.606;2023-04-29T13:24:58;16.8;99.0
43414;DHT22;29013;49.676;8.606;2023-04-29T13:30:19;16.9;98.6
43414;DHT22;29013;49.676;8.606;2023-04-29T13:35:45;17.0;98.9
43414;DHT22;29013;49.676;8.606;2023-04-29T13:41:10;17.3;99.5
43414;DHT22;29013;49.676;8.606;2023-04-29T13:46:32;17.8;98.4
43414;DHT22;29013;49.676;8.606;2023-04-29T13:51:57;18.1;97.9
43414;DHT22;29013;49.676;8.606;2023-04-29T13:58:09;17.8;97.9
43414;DHT22;29013;49.676;8.606;2023-04-29T14:03:32;18.2;97.8
43414;DHT22;29013;49.676;8.606;2023-04-29T14:08:55;18.1;96.3
43414;DHT22;29013;49.676;8.606;2023-04-29T14:14:16;18.1;96.5
43414;DHT22;29013;49.676;8.606;2023-04-29T14:19:41;18.1;96.0
43414;DHT22;29013;49.676;8.606;2023-04-29T14:25:06;17.8;96.8
43414;DHT22;29013;49.676;8.606;2023-04-29T14:30:46;17.6;96.8
43414;DHT22;29013;49.676;8.606;2023-04-29T14:36:07;17.6;97.2
43414;DHT22;29013;49.676;8.606;2023-04-29T14:41:32;17.5;97.3
43414;DHT22;29013;49.676;8.606;2023-04-29T14:46:54;17.4;97.3
43414;DHT22;29013;49.676;8.606;2023-04-29T14:52:18;17.5;97.7
43414;DHT22;29013;49.676;8.606;2023-04-29T14:57:43;17.5;97.5
43414;DHT22;29013;49.676;8.606;2023-04-29T15:03:09;17.6;97.7
43414;DHT22;29013;49.676;8.606;2023-04-29T15:08:33;17.6;97.5
43414;DHT22;29013;49.676;8.606;2023-04-29T15:14:36;17.8;97.0
43414;DHT22;29013;49.676;8.606;2023-04-29T15:20:12;17.7;96.8
43414;DHT22;29013;49.676;8.606;2023-04-29T15:25:31;17.6;97.1
43414;DHT22;29013;49.676;8.606;2023-04-29T15:31:18;17.2;97.8
43414;DHT22;29013;49.676;8.606;2023-04-29T15:36:42;17.2;97.7
43414;DHT22;29013;49.676;8.606;2023-04-29T15:42:03;16.9;97.9
43414;DHT22;29013;49.676;8.606;2023-04-29T15:47:31;16.8;98.7
43414;DHT22;29013;49.676;8.606;2023-04-29T15:52:56;16.8;98.5
43414;DHT22;29013;49.676;8.606;2023-04-29T15:58:18;16.7;98.6
43414;DHT22;29013;49.676;8.606;2023-04-29T16:03:57;16.6;99.2
43414;DHT22;29013;49.676;8.606;2023-04-29T16:09:18;16.7;99.2
43414;DHT22;29013;49.676;8.606;2023-04-29T16:14:42;16.6;99.2
43414;DHT22;29013;49.676;8.606;2023-04-29T16:20:11;16.5;99.4
43414;DHT22;29013;49.676;8.606;2023-04-29T16:25:33;16.4;99.6
43414;DHT22;29013;49.676;8.606;2023-04-29T16:30:58;16.3;99.9
43414;DHT22;29013;49.676;8.606;2023-04-29T16:36:47;16.2;99.9
43414;DHT22;29013;49.676;8.606;2023-04-29T16:42:09;16.3;99.9
43414;DHT22;29013;49.676;8.606;2023-04-29T16:47:30;16.1;99.9
43414;DHT22;29013;49.676;8.606;2023-04-29T16:52:53;16.1;99.9
43414;DHT22;29013;49.676;8.606;2023-04-29T16:58:18;16.0;99.9
43414;DHT22;29013;49.676;8.606;2023-04-29T17:03:43;16.0;99.9
43414;DHT22;29013;49.676;8.606;2023-04-29T17:09:07;15.9;99.9
43414;DHT22;29013;49.676;8.606;2023-04-29T17:14:32;15.9;99.9
43414;DHT22;29013;49.676;8.606;2023-04-29T17:19:57;15.9;99.9
43414;DHT22;29013;49.676;8.606;2023-04-29T17:25:32;15.8;99.9
43414;DHT22;29013;49.676;8.606;2023-04-29T17:30:54;15.8;99.9
43414;DHT22;29013;49.676;8.606;2023-04-29T17:36:39;15.7;99.9
43414;DHT22;29013;49.676;8.606;2023-04-29T17:42:03;15.7;99.8
43414;DHT22;29013;49.676;8.606;2023-04-29T17:47:28;15.6;99.6
43414;DHT22;29013;49.676;8.606;2023-04-29T17:52:50;15.5;99.8
43414;DHT22;29013;49.676;8.606;2023-04-29T17:58:13;15.5;99.7
43414;DHT22;29013;49.676;8.606;2023-04-29T18:03:39;15.4;99.7
43414;DHT22;29013;49.676;8.606;2023-04-29T18:08:57;15.4;99.5
43414;DHT22;29013;49.676;8.606;2023-04-29T18:14:20;15.3;99.9
43414;DHT22;29013;49.676;8.606;2023-04-29T18:19:46;15.2;99.9
43414;DHT22;29013;49.676;8.606;2023-04-29T18:25:11;15.2;99.9
43414;DHT22;29013;49.676;8.606;2023-04-29T18:31:23;15.0;99.9
43414;DHT22;29013;49.676;8.606;2023-04-29T18:36:45;15.3;99.9
43414;DHT22;29013;49.676;8.606;2023-04-29T18:42:10;15.1;99.9
43414;DHT22;29013;49.676;8.606;2023-04-29T18:47:53;14.9;99.9
43414;DHT22;29013;49.676;8.606;2023-04-29T18:53:14;14.9;99.9
43414;DHT22;29013;49.676;8.606;2023-04-29T18:58:35;14.9;99.9
43414;DHT22;29013;49.676;8.606;2023-04-29T19:04:00;14.7;99.9
43414;DHT22;29013;49.676;8.606;2023-04-29T19:09:25;14.7;99.9
43414;DHT22;29013;49.676;8.606;2023-04-29T19:15:03;14.6;99.9
43414;DHT22;29013;49.676;8.606;2023-04-29T19:20:25;14.6;99.9
43414;DHT22;29013;49.676;8.606;2023-04-29T19:25:46;14.6;99.9
43414;DHT22;29013;49.676;8.606;2023-04-29T19:31:10;14.7;99.9
43414;DHT22;29013;49.676;8.606;2023-04-29T19:36:37;14.6;99.9
43414;DHT22;29013;49.676;8.606;2023-04-29T19:42:02;14.6;99.9
43414;DHT22;29013;49.676;8.606;2023-04-29T19:47:25;14.6;99.9
43414;DHT22;29013;49.676;8.606;2023-04-29T19:52:51;14.6;99.9
43414;DHT22;29013;49.676;8.606;2023-04-29T19:58:14;14.6;99.9
43414;DHT22;29013;49.676;8.606;2023-04-29T20:03:38;14.5;99.9
43414;DHT22;29013;49.676;8.606;2023-04-29T20:09:01;14.5;99.9
43414;DHT22;29013;49.676;8.606;2023-04-29T20:14:29;14.5;99.9
43414;DHT22;29013;49.676;8.606;2023-04-29T20:19:47;14.5;99.9
43414;DHT22;29013;49.676;8.606;2023-04-29T20:25:12;14.4;99.9
43414;DHT22;29013;49.676;8.606;2023-04-29T20:30:34;14.5;99.9
43414;DHT22;29013;49.676;8.606;2023-04-29T20:36:15;14.3;99.9
43414;DHT22;29013;49.676;8.606;2023-04-29T20:41:39;14.4;99.9
43414;DHT22;29013;49.676;8.606;2023-04-29T20:47:06;14.3;99.9
43414;DHT22;29013;49.676;8.606;2023-04-29T20:52:26;14.3;99.9
43414;DHT22;29013;49.676;8.606;2023-04-29T20:57:50;14.3;99.9
43414;DHT22;29013;49.676;8.606;2023-04-29T21:03:08;14.4;99.9
43414;DHT22;29013;49.676;8.606;2023-04-29T21:08:52;14.3;99.9
43414;DHT22;29013;49.676;8.606;2023-04-29T21:14:15;14.4;99.9
43414;DHT22;29013;49.676;8.606;2023-04-29T21:19:37;14.4;99.9
43414;DHT22;29013;49.676;8.606;2023-04-29T21:25:02;14.4;99.9
43414;DHT22;29013;49.676;8.606;2023-04-29T21:30:28;14.4;99.9
43414;DHT22;29013;49.676;8.606;2023-04-29T21:35:53;14.3;99.9
43414;DHT22;29013;49.676;8.606;2023-04-29T21:41:22;14.3;99.9
43414;DHT22;29013;49.676;8.606;2023-04-29T21:46:41;14.3;99.9
43414;DHT22;29013;49.676;8.606;2023-04-29T21:52:05;14.3;99.9
43414;DHT22;29013;49.676;8.606;2023-04-29T21:57:30;14.3;99.9
43414;DHT22;29013;49.676;8.606;2023-04-29T22:02:51;14.1;99.9
43414;DHT22;29013;49.676;8.606;2023-04-29T22:08:14;14.0;99.9
43414;DHT22;29013;49.676;8.606;2023-04-29T22:13:37;14.0;99.9
43414;DHT22;29013;49.676;8.606;2023-04-29T22:19:00;14.0;99.9
43414;DHT22;29013;49.676;8.606;2023-04-29T22:24:22;14.1;99.9
43414;DHT22;29013;49.676;8.606;2023-04-29T22:29:48;14.1;99.9
43414;DHT22;29013;49.676;8.606;2023-04-29T22:35:12;14.1;99.9
43414;DHT22;29013;49.676;8.606;2023-04-29T22:40:36;14.1;99.9
43414;DHT22;29013;49.676;8.606;2023-04-29T22:46:00;14.1;99.9
43414;DHT22;29013;49.676;8.606;2023-04-29T22:51:25;14.1;99.9
43414;DHT22;29013;49.676;8.606;2023-04-29T22:56:46;14.1;99.9
43414;DHT22;29013;49.676;8.606;2023-04-29T23:02:09;14.0;99.9
43414;DHT22;29013;49.676;8.606;2023-04-29T23:07:36;14.0;99.9
43414;DHT22;29013;49.676;8.606;2023-04-29T23:12:54;14.1;99.9
43414;DHT22;29013;49.676;8.606;2023-04-29T23:18:19;14.0;99.9
43414;DHT22;29013;49.676;8.606;2023-04-29T23:23:40;13.8;99.9
43414;DHT22;29013;49.676;8.606;2023-04-29T23:29:05;13.7;99.9
43414;DHT22;29013;49.676;8.606;2023-04-29T23:34:29;13.8;99.9
43414;DHT22;29013;49.676;8.606;2023-04-29T23:39:52;13.8;99.9
43414;DHT22;29013;49.676;8.606;2023-04-29T23:45:16;13.8;99.9
43414;DHT22;29013;49.676;8.606;2023-04-29T23:50:40;13.8;99.9
43414;DHT22;29013;49.676;8.606;2023-04-29T23:55:58;13.8;99.9
